Rosewood, Indiana
Current Conditions -  °F | °C
As of 3:56 AM on Monday 22 Dec 2014 (Local Time) from KSDF Reporting Station
Overcast Overcast  
Wind Chill: 37°   Ceiling: 5500
Heat Index: 37°   Visibility: 10mi
Dew Point: 29°   Wind: 3mph
Humidity: 73%   Direction: 70°ENE
Pressure: 30"   Gusts: NA
Location:  38.1042°N, 85.9595°W
Report Text: KSDF 220856Z 07003KT 10SM FEW045 OVC055 03/M02 A3000 RMK AO2 SLP162 T00281017 56016
Loading
Personal Weather Stations






























Interactive Weather Map New forecast layout! Learn more

10-Day Weather Forecast

Advertisements
Track Severe Weather on mobile